createdAt,value
2016-10-29T00:00:11.573Z,9.99
2016-10-29T00:01:12.248Z,10.07
2016-10-29T00:02:12.922Z,10.1
2016-10-29T00:03:13.598Z,10.07
2016-10-29T00:04:14.783Z,10.12
2016-10-29T00:05:15.448Z,10.09
2016-10-29T00:06:17.562Z,10.12
2016-10-29T00:07:18.229Z,10.12
2016-10-29T00:08:18.932Z,10.12
2016-10-29T00:09:19.600Z,10.02
2016-10-29T00:10:20.270Z,10.13
2016-10-29T00:11:20.926Z,10.13
2016-10-29T00:12:21.585Z,10.17
2016-10-29T00:13:22.262Z,10.28
2016-10-29T00:14:22.935Z,10.3
2016-10-29T00:15:23.611Z,10.16
2016-10-29T00:16:24.279Z,10.16
2016-10-29T00:17:24.943Z,10.23
2016-10-29T00:18:25.610Z,10.19
2016-10-29T00:19:26.308Z,10.23
2016-10-29T00:20:26.982Z,10.17
2016-10-29T00:21:27.649Z,10.13
2016-10-29T00:22:28.314Z,10.23
2016-10-29T00:23:28.976Z,10.19
2016-10-29T00:24:29.642Z,10.15
2016-10-29T00:25:30.312Z,10.12
2016-10-29T00:26:30.976Z,10.15
2016-10-29T00:27:31.638Z,10.09
2016-10-29T00:28:32.363Z,10.09
2016-10-29T00:29:33.030Z,10.05
2016-10-29T00:30:33.689Z,10.05
2016-10-29T00:31:34.359Z,10.01
2016-10-29T00:32:35.037Z,10.02
2016-10-29T00:33:35.704Z,9.97
2016-10-29T00:34:36.364Z,9.99
2016-10-29T00:35:37.089Z,9.97
2016-10-29T00:36:37.757Z,10.01
2016-10-29T00:37:38.421Z,9.86
2016-10-29T00:38:39.172Z,9.94
2016-10-29T00:39:39.839Z,9.91
2016-10-29T00:40:40.503Z,9.92
2016-10-29T00:41:41.164Z,9.94
2016-10-29T00:42:41.830Z,9.87
2016-10-29T00:43:42.486Z,9.82
2016-10-29T00:44:43.162Z,9.87
2016-10-29T00:45:43.836Z,9.82
2016-10-29T00:46:44.498Z,9.82
2016-10-29T00:47:45.166Z,9.73
2016-10-29T00:48:45.830Z,9.77
2016-10-29T00:49:46.485Z,9.73
2016-10-29T00:50:47.160Z,9.73
2016-10-29T00:51:47.835Z,9.8
2016-10-29T00:52:48.495Z,9.77
2016-10-29T00:53:49.158Z,9.79
2016-10-29T00:54:49.826Z,9.77
2016-10-29T00:55:50.500Z,9.73
2016-10-29T00:56:51.177Z,9.69
2016-10-29T00:57:51.846Z,9.74
2016-10-29T00:58:52.514Z,9.73
2016-10-29T00:59:53.182Z,9.69
2016-10-29T01:00:53.836Z,9.69
2016-10-29T01:01:54.506Z,9.74
2016-10-29T01:02:55.156Z,9.68
2016-10-29T01:03:55.808Z,9.74
2016-10-29T01:04:56.464Z,9.69
2016-10-29T01:05:57.132Z,9.73
2016-10-29T01:06:57.794Z,9.74
2016-10-29T01:07:58.464Z,9.77
2016-10-29T01:08:59.129Z,9.73
2016-10-29T01:09:59.782Z,9.79
2016-10-29T01:11:00.447Z,9.79
2016-10-29T01:12:01.108Z,9.83
2016-10-29T01:13:01.803Z,9.83
2016-10-29T01:14:02.466Z,9.92
2016-10-29T01:15:03.132Z,9.83
2016-10-29T01:16:03.807Z,9.89
2016-10-29T01:17:04.484Z,9.89
2016-10-29T01:18:05.160Z,9.92
2016-10-29T01:19:05.829Z,9.84
2016-10-29T01:20:06.500Z,9.94
2016-10-29T01:21:07.169Z,9.91
2016-10-29T01:22:07.828Z,9.91
2016-10-29T01:23:08.501Z,9.98
2016-10-29T01:24:09.157Z,9.99
2016-10-29T01:25:09.831Z,9.98
2016-10-29T01:26:10.490Z,9.98
2016-10-29T01:27:11.162Z,9.98
2016-10-29T01:28:11.841Z,9.95
2016-10-29T01:29:12.498Z,10.04
2016-10-29T01:30:13.158Z,9.99
2016-10-29T01:31:13.833Z,10.1
2016-10-29T01:32:14.495Z,10.07
2016-10-29T01:33:15.170Z,10.07
2016-10-29T01:34:15.846Z,10.05
2016-10-29T01:35:16.518Z,10.07
2016-10-29T01:36:17.191Z,10.13
2016-10-29T01:37:24.600Z,10.09
2016-10-29T01:38:25.261Z,10.05
2016-10-29T01:39:25.921Z,10.09
2016-10-29T01:40:26.587Z,10.09
2016-10-29T01:41:27.260Z,10.07
2016-10-29T01:42:27.934Z,10.12
2016-10-29T01:43:28.607Z,10.05
2016-10-29T01:44:29.281Z,10.15
2016-10-29T01:45:29.950Z,9.98
2016-10-29T01:46:30.618Z,10.02
2016-10-29T01:47:31.289Z,9.98
2016-10-29T01:48:31.966Z,9.87
2016-10-29T01:49:33.559Z,9.87
2016-10-29T01:50:34.228Z,9.94
2016-10-29T01:51:34.896Z,9.98
2016-10-29T01:52:35.571Z,9.97
2016-10-29T01:53:36.249Z,9.95
2016-10-29T01:54:36.920Z,9.95
2016-10-29T01:55:37.592Z,9.98
2016-10-29T01:56:38.266Z,10.01
2016-10-29T01:57:39.012Z,9.99
2016-10-29T01:58:39.636Z,9.97
2016-10-29T01:59:40.293Z,9.99
2016-10-29T02:00:40.982Z,9.99
2016-10-29T02:01:41.672Z,9.98
2016-10-29T02:02:42.338Z,9.92
2016-10-29T02:03:43.021Z,10.04
2016-10-29T02:04:43.686Z,10.05
2016-10-29T02:05:44.359Z,10.07
2016-10-29T02:06:45.030Z,10.02
2016-10-29T02:07:45.705Z,10.05
2016-10-29T02:08:46.380Z,10.17
2016-10-29T02:09:47.054Z,10.09
2016-10-29T02:10:47.721Z,10.13
2016-10-29T02:11:48.394Z,10.05
2016-10-29T02:12:49.066Z,10.07
2016-10-29T02:13:49.742Z,10.09
2016-10-29T02:14:50.410Z,10.07
2016-10-29T02:15:51.086Z,10.05
2016-10-29T02:16:51.754Z,10.05
2016-10-29T02:17:52.436Z,10.02
2016-10-29T02:18:53.099Z,10.09
2016-10-29T02:19:53.772Z,10.07
2016-10-29T02:20:54.450Z,10.07
2016-10-29T02:21:55.119Z,10.01
2016-10-29T02:22:55.782Z,10.1
2016-10-29T02:23:56.455Z,10.1
2016-10-29T02:24:57.135Z,10.15
2016-10-29T02:25:57.806Z,9.98
2016-10-29T02:26:58.481Z,10.02
2016-10-29T02:27:59.157Z,10.05
2016-10-29T02:28:59.825Z,10.1
2016-10-29T02:30:00.496Z,10.01
2016-10-29T02:31:01.167Z,10.1
2016-10-29T02:32:01.826Z,10.05
2016-10-29T02:33:02.488Z,10.09
2016-10-29T02:34:03.159Z,10.07
2016-10-29T02:35:03.813Z,10.16
2016-10-29T02:36:04.491Z,10.1
2016-10-29T02:37:05.160Z,10.07
2016-10-29T02:38:05.821Z,10.12
2016-10-29T02:39:06.500Z,10.07
2016-10-29T02:40:07.172Z,10.16
2016-10-29T02:41:07.837Z,10.07
2016-10-29T02:42:08.500Z,10.22
2016-10-29T02:43:09.161Z,10.3
2016-10-29T02:44:09.883Z,10.17
2016-10-29T02:45:10.585Z,10.19
2016-10-29T02:46:11.262Z,10.25
2016-10-29T02:47:11.930Z,10.17
2016-10-29T02:48:12.603Z,10.26
2016-10-29T02:49:13.262Z,10.15
2016-10-29T02:50:13.917Z,10.15
2016-10-29T02:51:14.587Z,10.19
2016-10-29T02:52:15.251Z,10.15
2016-10-29T02:53:15.926Z,10.12
2016-10-29T02:54:16.601Z,10.13
2016-10-29T02:55:17.271Z,10.07
2016-10-29T02:56:17.941Z,10.1
2016-10-29T02:57:18.612Z,10.09
2016-10-29T02:58:19.281Z,10.13
2016-10-29T02:59:19.949Z,9.98
2016-10-29T03:00:20.628Z,10.05
2016-10-29T03:01:21.302Z,9.98
2016-10-29T03:02:21.973Z,9.99
2016-10-29T03:03:22.628Z,10.01
2016-10-29T03:04:23.323Z,9.97
2016-10-29T03:05:23.995Z,9.99
2016-10-29T03:06:24.673Z,9.97
2016-10-29T03:07:25.344Z,9.91
2016-10-29T03:08:26.004Z,9.97
2016-10-29T03:09:26.686Z,9.97
2016-10-29T03:10:27.366Z,9.94
2016-10-29T03:11:28.028Z,9.8
2016-10-29T03:12:28.703Z,9.84
2016-10-29T03:13:29.377Z,9.87
2016-10-29T03:14:30.044Z,9.84
2016-10-29T03:15:30.712Z,9.86
2016-10-29T03:16:31.395Z,9.8
2016-10-29T03:17:32.073Z,9.84
2016-10-29T03:18:32.737Z,9.87
2016-10-29T03:19:33.406Z,9.82
2016-10-29T03:20:34.077Z,9.73
2016-10-29T03:21:34.737Z,9.82
2016-10-29T03:22:35.423Z,9.77
2016-10-29T03:23:36.082Z,9.77
2016-10-29T03:24:36.741Z,9.74
2016-10-29T03:25:37.420Z,9.74
2016-10-29T03:26:38.083Z,9.77
2016-10-29T03:27:38.772Z,9.79
2016-10-29T03:28:39.755Z,9.8
2016-10-29T03:29:40.422Z,9.8
2016-10-29T03:30:41.078Z,9.79
2016-10-29T03:31:41.737Z,9.79
2016-10-29T03:32:42.398Z,9.89
2016-10-29T03:33:43.066Z,9.83
2016-10-29T03:34:43.735Z,9.82
2016-10-29T03:35:44.385Z,9.79
2016-10-29T03:36:45.046Z,9.83
2016-10-29T03:37:45.703Z,9.89
2016-10-29T03:38:46.364Z,9.84
2016-10-29T03:39:47.024Z,9.92
2016-10-29T03:40:47.683Z,9.83
2016-10-29T03:41:48.358Z,9.95
2016-10-29T03:42:49.030Z,9.95
2016-10-29T03:43:49.706Z,9.95
2016-10-29T03:44:50.378Z,9.91
2016-10-29T03:45:51.051Z,9.94
2016-10-29T03:46:51.724Z,9.87
2016-10-29T03:47:52.387Z,9.99
2016-10-29T03:48:53.051Z,9.97
2016-10-29T03:49:53.718Z,10.01
2016-10-29T03:50:54.391Z,9.91
2016-10-29T03:51:55.054Z,9.97
2016-10-29T03:52:55.718Z,10.04
2016-10-29T03:53:56.386Z,10.02
2016-10-29T03:54:57.054Z,9.98
2016-10-29T03:55:57.734Z,10.02
2016-10-29T03:56:58.377Z,10.01
2016-10-29T03:57:59.048Z,10.1
2016-10-29T03:58:59.713Z,10.09
2016-10-29T04:00:00.375Z,10.12
2016-10-29T04:01:01.048Z,10.05
2016-10-29T04:02:01.722Z,10.1
2016-10-29T04:03:02.388Z,10.07
2016-10-29T04:04:03.057Z,10.05
2016-10-29T04:05:03.781Z,10.02
2016-10-29T04:06:04.411Z,9.98
2016-10-29T04:07:05.085Z,10.02
2016-10-29T04:08:05.751Z,10.07
2016-10-29T04:09:06.409Z,10.05
2016-10-29T04:10:07.067Z,10.07
2016-10-29T04:11:07.744Z,10.07
2016-10-29T04:12:08.408Z,10.02
2016-10-29T04:13:09.065Z,9.99
2016-10-29T04:14:09.747Z,10.05
2016-10-29T04:15:10.412Z,10.02
2016-10-29T04:16:11.081Z,10.07
2016-10-29T04:17:11.756Z,10.05
2016-10-29T04:18:12.427Z,10.02
2016-10-29T04:19:13.100Z,10.07
2016-10-29T04:20:13.777Z,10.01
2016-10-29T04:21:14.441Z,10.04
2016-10-29T04:22:15.114Z,10.07
2016-10-29T04:23:15.794Z,10.12
2016-10-29T04:24:16.457Z,10.05
2016-10-29T04:25:17.136Z,10.01
2016-10-29T04:26:17.806Z,10.04
2016-10-29T04:27:18.482Z,9.95
2016-10-29T04:28:19.149Z,9.97
2016-10-29T04:29:19.825Z,10.1
2016-10-29T04:30:20.504Z,9.97
2016-10-29T04:31:21.168Z,9.99
2016-10-29T04:32:21.844Z,9.98
2016-10-29T04:33:22.520Z,9.95
2016-10-29T04:34:23.186Z,9.97
2016-10-29T04:35:23.865Z,9.99
2016-10-29T04:36:24.531Z,9.94
2016-10-29T04:37:25.206Z,10.01
2016-10-29T04:38:25.877Z,10.01
2016-10-29T04:39:26.559Z,9.98
2016-10-29T04:40:27.224Z,10.01
2016-10-29T04:41:27.893Z,9.99
2016-10-29T04:42:28.560Z,9.97
2016-10-29T04:43:29.229Z,9.99
2016-10-29T04:44:29.917Z,9.99
2016-10-29T04:45:30.615Z,9.92
2016-10-29T04:46:31.278Z,9.98
2016-10-29T04:47:31.931Z,9.95
2016-10-29T04:48:32.603Z,9.95
2016-10-29T04:49:33.262Z,9.98
2016-10-29T04:50:33.933Z,9.99
2016-10-29T04:51:34.630Z,10.02
2016-10-29T04:52:35.292Z,9.94
2016-10-29T04:53:35.953Z,10.02
2016-10-29T04:54:36.626Z,9.92
2016-10-29T04:55:37.290Z,9.94
2016-10-29T04:56:37.956Z,10.01
2016-10-29T04:57:38.614Z,9.98
2016-10-29T04:58:39.285Z,9.98
2016-10-29T04:59:39.950Z,10.02
2016-10-29T05:00:40.599Z,10.01
2016-10-29T05:01:41.275Z,10.02
2016-10-29T05:02:41.945Z,10.09
2016-10-29T05:03:42.611Z,10.09
2016-10-29T05:04:43.272Z,9.95
2016-10-29T05:05:43.936Z,10.02
2016-10-29T05:06:44.606Z,9.95
2016-10-29T05:07:45.258Z,9.95
2016-10-29T05:08:45.931Z,10.04
2016-10-29T05:09:46.589Z,10.02
2016-10-29T05:10:47.260Z,10.09
2016-10-29T05:11:47.927Z,10.09
2016-10-29T05:12:48.586Z,10.13
2016-10-29T05:13:49.252Z,10.1
2016-10-29T05:14:49.919Z,10.02
2016-10-29T05:15:50.591Z,10.1
2016-10-29T05:16:51.260Z,10.12
2016-10-29T05:17:51.933Z,10.16
2016-10-29T05:18:52.594Z,10.04
2016-10-29T05:19:53.256Z,10.1
2016-10-29T05:20:53.928Z,10.15
2016-10-29T05:21:54.603Z,10.05
2016-10-29T05:22:55.265Z,10.05
2016-10-29T05:23:55.944Z,10.07
2016-10-29T05:24:56.609Z,10.15
2016-10-29T05:25:57.295Z,10.1
2016-10-29T05:26:57.955Z,10.05
2016-10-29T05:27:58.636Z,10.01
2016-10-29T05:28:59.309Z,10.09
2016-10-29T05:30:00.033Z,10.09
2016-10-29T05:31:00.707Z,10.02
2016-10-29T05:32:01.372Z,10.01
2016-10-29T05:33:02.048Z,10.02
2016-10-29T05:34:02.721Z,9.97
2016-10-29T05:35:03.393Z,9.94
2016-10-29T05:36:04.061Z,9.94
2016-10-29T05:37:04.727Z,9.97
2016-10-29T05:38:05.398Z,9.84
2016-10-29T05:39:06.060Z,9.94
2016-10-29T05:40:06.718Z,9.98
2016-10-29T05:41:07.392Z,9.95
2016-10-29T05:42:08.048Z,9.89
2016-10-29T05:43:08.736Z,9.94
2016-10-29T05:44:09.393Z,9.94
2016-10-29T05:45:10.065Z,9.92
2016-10-29T05:46:10.744Z,9.94
2016-10-29T05:47:11.410Z,9.84
2016-10-29T05:48:12.075Z,9.87
2016-10-29T05:49:12.739Z,9.87
2016-10-29T05:50:13.413Z,9.84
2016-10-29T05:51:14.070Z,9.91
2016-10-29T05:52:14.754Z,9.91
2016-10-29T05:53:15.410Z,9.92
2016-10-29T05:54:16.075Z,9.89
2016-10-29T05:55:16.737Z,9.91
2016-10-29T05:56:17.414Z,10.01
2016-10-29T05:57:18.083Z,9.99
2016-10-29T05:58:18.750Z,9.99
2016-10-29T05:59:19.407Z,9.99
2016-10-29T06:00:20.077Z,9.98
2016-10-29T06:01:20.739Z,10.09
2016-10-29T06:02:21.420Z,10.15
2016-10-29T06:03:22.088Z,10.07
2016-10-29T06:04:22.749Z,10.02
2016-10-29T06:05:23.403Z,10.07
2016-10-29T06:06:24.064Z,10.12
2016-10-29T06:07:24.731Z,10.05
2016-10-29T06:08:25.397Z,10.09
2016-10-29T06:09:26.080Z,10.09
2016-10-29T06:10:26.744Z,10.04
2016-10-29T06:11:27.416Z,10.13
2016-10-29T06:12:28.073Z,10.19
2016-10-29T06:13:28.738Z,10.22
2016-10-29T06:14:29.429Z,10.22
2016-10-29T06:15:30.113Z,10.26
2016-10-29T06:16:30.778Z,10.23
2016-10-29T06:17:31.450Z,10.23
2016-10-29T06:18:32.127Z,10.23
2016-10-29T06:19:32.797Z,10.15
2016-10-29T06:20:33.470Z,10.22
2016-10-29T06:21:34.140Z,10.2
2016-10-29T06:22:34.815Z,10.26
2016-10-29T06:23:35.483Z,10.19
2016-10-29T06:24:36.160Z,10.16
2016-10-29T06:25:36.831Z,10.2
2016-10-29T06:26:37.500Z,10.15
2016-10-29T06:27:38.169Z,10.07
2016-10-29T06:28:38.854Z,10.07
2016-10-29T06:29:39.522Z,10.04
2016-10-29T06:30:40.197Z,10.07
2016-10-29T06:31:40.867Z,9.99
2016-10-29T06:32:41.532Z,10.1
2016-10-29T06:33:42.214Z,10.05
2016-10-29T06:34:42.889Z,9.92
2016-10-29T06:35:43.552Z,9.99
2016-10-29T06:36:44.274Z,9.98
2016-10-29T06:37:44.950Z,9.99
2016-10-29T06:38:45.611Z,9.97
2016-10-29T06:39:46.292Z,9.97
2016-10-29T06:40:46.967Z,9.98
2016-10-29T06:41:47.655Z,9.99
2016-10-29T06:42:48.316Z,9.99
2016-10-29T06:43:48.988Z,9.95
2016-10-29T06:44:49.660Z,9.92
2016-10-29T06:45:50.355Z,9.97
2016-10-29T06:46:51.004Z,9.97
2016-10-29T06:47:51.671Z,9.92
2016-10-29T06:48:52.352Z,9.92
2016-10-29T06:49:53.020Z,9.89
2016-10-29T06:50:53.689Z,9.89
2016-10-29T06:51:54.443Z,9.94
2016-10-29T06:52:55.109Z,9.92
2016-10-29T06:53:55.814Z,9.89
2016-10-29T06:54:56.476Z,9.97
2016-10-29T06:55:57.144Z,9.97
2016-10-29T06:56:57.803Z,9.92
2016-10-29T06:57:58.470Z,9.95
2016-10-29T06:58:59.122Z,9.98
2016-10-29T06:59:59.790Z,9.99
2016-10-29T07:01:00.454Z,9.92
2016-10-29T07:02:01.145Z,10.01
2016-10-29T07:03:01.813Z,9.98
2016-10-29T07:04:02.479Z,9.98
2016-10-29T07:05:03.181Z,10.02
2016-10-29T07:06:03.850Z,10.04
2016-10-29T07:07:04.521Z,10.09
2016-10-29T07:08:05.183Z,10.05
2016-10-29T07:09:05.857Z,10.15
2016-10-29T07:10:06.519Z,10.04
2016-10-29T07:11:07.229Z,10.09
2016-10-29T07:12:07.912Z,10.12
2016-10-29T07:13:08.580Z,10.2
2016-10-29T07:14:09.260Z,10.34
2016-10-29T07:15:09.931Z,10.3
2016-10-29T07:16:10.609Z,10.37
2016-10-29T07:17:11.325Z,10.42
2016-10-29T07:18:12.001Z,10.44
2016-10-29T07:19:12.671Z,10.51
2016-10-29T07:20:13.367Z,10.54
2016-10-29T07:21:14.040Z,10.6
2016-10-29T07:22:14.708Z,10.61
2016-10-29T07:23:15.376Z,10.63
2016-10-29T07:24:16.042Z,10.67
2016-10-29T07:25:16.707Z,10.59
2016-10-29T07:26:17.369Z,10.6
2016-10-29T07:27:18.053Z,10.67
2016-10-29T07:28:18.714Z,10.6
2016-10-29T07:29:19.393Z,10.68
2016-10-29T07:30:20.058Z,10.64
2016-10-29T07:31:20.733Z,10.69
2016-10-29T07:32:21.467Z,10.79
2016-10-29T07:33:22.157Z,10.78
2016-10-29T07:34:22.817Z,10.79
2016-10-29T07:35:23.488Z,10.76
2016-10-29T07:36:24.160Z,10.82
2016-10-29T07:37:24.850Z,10.79
2016-10-29T07:38:25.529Z,10.87
2016-10-29T07:39:26.196Z,10.96
2016-10-29T07:40:26.858Z,10.89
2016-10-29T07:41:27.534Z,10.84
2016-10-29T07:42:28.202Z,10.82
2016-10-29T07:43:28.871Z,10.93
2016-10-29T07:44:29.541Z,10.97
2016-10-29T07:45:30.238Z,10.97
2016-10-29T07:46:30.943Z,10.94
2016-10-29T07:47:31.605Z,11.04
2016-10-29T07:48:32.270Z,10.94
2016-10-29T07:49:32.934Z,10.9
2016-10-29T07:50:33.610Z,11.07
2016-10-29T07:51:34.288Z,11.18
2016-10-29T07:52:34.945Z,11.19
2016-10-29T07:53:35.634Z,11.14
2016-10-29T07:54:36.300Z,11.1
2016-10-29T07:55:36.968Z,11.25
2016-10-29T07:56:37.641Z,11.25
2016-10-29T07:57:38.305Z,11.36
2016-10-29T07:58:39.010Z,11.29
2016-10-29T07:59:39.685Z,11.4
2016-10-29T08:00:40.357Z,11.35
2016-10-29T08:01:41.025Z,11.44
2016-10-29T08:02:41.694Z,11.5
2016-10-29T08:03:42.366Z,11.43
2016-10-29T08:04:43.031Z,11.47
2016-10-29T08:05:43.698Z,11.48
2016-10-29T08:06:44.375Z,11.5
2016-10-29T08:07:45.066Z,11.44
2016-10-29T08:08:45.737Z,11.45
2016-10-29T08:09:46.409Z,11.47
2016-10-29T08:10:47.280Z,11.43
2016-10-29T08:11:48.050Z,11.48
2016-10-29T08:12:48.904Z,11.54
2016-10-29T08:13:49.660Z,11.48
2016-10-29T08:14:50.386Z,11.44
2016-10-29T08:15:51.853Z,11.48
2016-10-29T08:16:52.539Z,11.51
2016-10-29T08:17:53.208Z,11.48
2016-10-29T08:18:53.871Z,11.55
2016-10-29T08:19:54.549Z,11.57
2016-10-29T08:20:55.229Z,11.59
2016-10-29T08:21:55.889Z,11.63
2016-10-29T08:22:56.586Z,11.62
2016-10-29T08:23:57.307Z,11.65
2016-10-29T08:24:57.978Z,11.75
2016-10-29T08:25:58.641Z,11.72
2016-10-29T08:26:59.306Z,11.73
2016-10-29T08:27:59.975Z,11.77
2016-10-29T08:29:00.652Z,11.7
2016-10-29T08:30:01.320Z,11.75
2016-10-29T08:31:02.006Z,11.75
2016-10-29T08:32:02.680Z,11.72
2016-10-29T08:33:03.359Z,11.84
2016-10-29T08:34:04.026Z,11.84
2016-10-29T08:35:04.696Z,11.86
2016-10-29T08:36:05.368Z,11.95
2016-10-29T08:37:06.031Z,11.94
2016-10-29T08:38:06.708Z,11.99
2016-10-29T08:39:07.384Z,11.95
2016-10-29T08:40:08.052Z,11.94
2016-10-29T08:41:08.759Z,11.97
2016-10-29T08:42:09.438Z,11.97
2016-10-29T08:43:10.103Z,11.95
2016-10-29T08:44:10.797Z,11.94
2016-10-29T08:45:12.158Z,11.95
2016-10-29T08:46:12.884Z,12.07
2016-10-29T08:47:13.505Z,12.03
2016-10-29T08:48:14.202Z,12
2016-10-29T08:49:14.884Z,12.13
2016-10-29T08:50:15.531Z,12.18
2016-10-29T08:51:16.210Z,12.15
2016-10-29T08:52:16.879Z,12.18
2016-10-29T08:53:17.672Z,12.13
2016-10-29T08:54:18.306Z,12.13
2016-10-29T08:55:19.017Z,12.24
2016-10-29T08:56:19.700Z,12.25
2016-10-29T08:57:20.344Z,12.24
2016-10-29T08:58:21.021Z,12.2
2016-10-29T08:59:21.703Z,12.2
2016-10-29T09:00:22.443Z,12.15
2016-10-29T09:01:23.081Z,12.22
2016-10-29T09:02:24.703Z,12.2
2016-10-29T09:03:25.363Z,12.22
2016-10-29T09:04:26.043Z,12.21
2016-10-29T09:05:26.801Z,12.2
2016-10-29T09:06:27.470Z,12.28
2016-10-29T09:07:28.222Z,12.31
2016-10-29T09:08:28.940Z,12.27
2016-10-29T09:09:29.643Z,12.29
2016-10-29T09:10:30.317Z,12.42
2016-10-29T09:11:30.984Z,12.4
2016-10-29T09:12:31.655Z,12.45
2016-10-29T09:13:32.365Z,12.47
2016-10-29T09:14:33.046Z,12.53
2016-10-29T09:15:33.715Z,12.53
2016-10-29T09:16:34.387Z,12.5
2016-10-29T09:17:35.060Z,12.49
2016-10-29T09:18:35.729Z,12.58
2016-10-29T09:19:36.400Z,12.57
2016-10-29T09:20:37.077Z,12.55
2016-10-29T09:21:37.752Z,12.54
2016-10-29T09:22:38.423Z,12.49
2016-10-29T09:23:39.094Z,12.42
2016-10-29T09:24:39.774Z,12.49
2016-10-29T09:25:40.447Z,12.53
2016-10-29T09:26:41.118Z,12.62
2016-10-29T09:27:41.780Z,12.62
2016-10-29T09:28:42.451Z,12.67
2016-10-29T09:29:43.119Z,12.62
2016-10-29T09:30:43.794Z,12.61
2016-10-29T09:31:44.481Z,12.62
2016-10-29T09:32:45.152Z,12.57
2016-10-29T09:33:45.839Z,12.64
2016-10-29T09:34:46.500Z,12.62
2016-10-29T09:35:47.185Z,12.73
2016-10-29T09:36:47.853Z,12.87
2016-10-29T09:37:48.529Z,12.86
2016-10-29T09:38:49.204Z,12.85
2016-10-29T09:39:49.911Z,12.8
2016-10-29T09:40:50.580Z,12.83
2016-10-29T09:41:51.260Z,12.87
2016-10-29T09:42:51.926Z,12.93
2016-10-29T09:43:52.593Z,12.9
2016-10-29T09:44:53.256Z,12.95
2016-10-29T09:45:53.925Z,12.95
2016-10-29T09:46:57.310Z,12.85
2016-10-29T09:47:58.845Z,12.95
2016-10-29T09:48:59.524Z,12.98
2016-10-29T09:50:00.298Z,13.03
2016-10-29T09:51:01.509Z,12.98
2016-10-29T09:52:02.240Z,12.98
2016-10-29T09:53:03.064Z,13
2016-10-29T09:54:03.761Z,13.03
2016-10-29T09:55:04.459Z,12.98
2016-10-29T09:56:05.134Z,12.98
2016-10-29T09:57:07.086Z,12.97
2016-10-29T09:58:08.055Z,12.97
2016-10-29T09:59:10.176Z,12.9
2016-10-29T10:00:10.962Z,12.93
2016-10-29T10:01:11.695Z,12.93
2016-10-29T10:02:12.488Z,13
2016-10-29T10:03:13.267Z,13.01
2016-10-29T10:04:13.939Z,13.01
2016-10-29T10:05:14.645Z,12.98
2016-10-29T10:06:15.702Z,12.94
2016-10-29T10:07:16.465Z,13.01
2016-10-29T10:08:17.567Z,12.94
2016-10-29T10:09:18.955Z,12.94
2016-10-29T10:10:19.767Z,12.86
2016-10-29T10:11:20.562Z,12.93
2016-10-29T10:12:21.417Z,12.97
2016-10-29T10:13:22.171Z,12.95
2016-10-29T10:14:22.973Z,12.8
2016-10-29T10:15:23.777Z,12.94
2016-10-29T10:16:24.618Z,12.9
2016-10-29T10:17:25.502Z,12.9
2016-10-29T10:18:26.365Z,12.93
2016-10-29T10:19:27.182Z,12.87
2016-10-29T10:20:28.183Z,12.91
2016-10-29T10:21:28.987Z,12.94
2016-10-29T10:22:29.659Z,12.95
2016-10-29T10:23:30.330Z,12.98
2016-10-29T10:24:31.012Z,13
2016-10-29T10:25:31.677Z,12.97
2016-10-29T10:26:32.349Z,12.87
2016-10-29T10:27:33.026Z,13.04
2016-10-29T10:28:33.692Z,13
2016-10-29T10:29:36.344Z,12.97
2016-10-29T10:30:37.234Z,13
2016-10-29T10:31:38.387Z,12.98
2016-10-29T10:32:39.454Z,12.95
2016-10-29T10:33:40.139Z,12.95
2016-10-29T10:34:40.816Z,12.98
2016-10-29T10:35:41.505Z,13.01
2016-10-29T10:36:42.187Z,13.03
2016-10-29T10:37:42.844Z,13.03
2016-10-29T10:38:43.920Z,13.03
2016-10-29T10:39:44.599Z,12.95
2016-10-29T10:40:49.504Z,12.98
2016-10-29T10:41:50.828Z,12.97
2016-10-29T10:42:52.725Z,12.95
2016-10-29T10:43:55.269Z,12.98
2016-10-29T10:44:56.643Z,12.97
2016-10-29T10:45:57.466Z,12.93
2016-10-29T10:46:58.131Z,12.97
2016-10-29T10:47:58.824Z,13
2016-10-29T10:48:59.494Z,12.98
2016-10-29T10:50:00.187Z,13.01
2016-10-29T10:51:00.877Z,13
2016-10-29T10:52:01.577Z,12.91
2016-10-29T10:53:02.898Z,13.01
2016-10-29T10:54:03.591Z,12.97
2016-10-29T10:55:04.287Z,13
2016-10-29T10:56:04.950Z,12.95
2016-10-29T10:57:05.633Z,12.87
2016-10-29T10:58:06.308Z,12.9
2016-10-29T10:59:07.020Z,12.9
2016-10-29T11:00:07.715Z,12.87
2016-10-29T11:01:08.411Z,12.87
2016-10-29T11:02:09.083Z,13.01
2016-10-29T11:03:09.752Z,12.85
2016-10-29T11:04:10.453Z,12.93
2016-10-29T11:05:11.128Z,12.85
2016-10-29T11:06:11.796Z,12.93
2016-10-29T11:07:12.471Z,12.94
2016-10-29T11:08:13.138Z,12.97
2016-10-29T11:09:13.811Z,13.03
2016-10-29T11:10:14.494Z,13.12
2016-10-29T11:11:15.151Z,13.09
2016-10-29T11:12:15.825Z,13.18
2016-10-29T11:13:16.497Z,13.27
2016-10-29T11:14:17.168Z,13.38
2016-10-29T11:15:17.832Z,13.33
2016-10-29T11:16:18.495Z,13.3
2016-10-29T11:17:19.174Z,13.37
2016-10-29T11:18:19.837Z,13.39
2016-10-29T11:19:20.499Z,13.42
2016-10-29T11:20:21.182Z,13.38
2016-10-29T11:21:21.871Z,13.49
2016-10-29T11:22:22.549Z,13.5
2016-10-29T11:23:23.256Z,13.38
2016-10-29T11:24:23.962Z,13.41
2016-10-29T11:25:24.635Z,13.39
2016-10-29T11:26:25.312Z,13.39
2016-10-29T11:27:26.001Z,13.39
2016-10-29T11:28:26.669Z,13.44
2016-10-29T11:29:27.338Z,13.42
2016-10-29T11:30:28.017Z,13.39
2016-10-29T11:31:28.687Z,13.37
2016-10-29T11:32:29.355Z,13.42
2016-10-29T11:33:30.029Z,13.39
2016-10-29T11:34:30.706Z,13.49
2016-10-29T11:35:31.432Z,13.59
2016-10-29T11:36:32.106Z,13.53
2016-10-29T11:37:32.776Z,13.54
2016-10-29T11:38:33.450Z,13.56
2016-10-29T11:39:34.125Z,13.56
2016-10-29T11:40:34.795Z,13.54
2016-10-29T11:41:35.469Z,13.54
2016-10-29T11:42:36.144Z,13.53
2016-10-29T11:43:36.814Z,13.6
2016-10-29T11:44:37.483Z,13.57
2016-10-29T11:45:38.169Z,13.56
2016-10-29T11:46:38.847Z,13.65
2016-10-29T11:47:39.526Z,13.59
2016-10-29T11:48:40.224Z,13.6
2016-10-29T11:49:40.918Z,13.67
2016-10-29T11:50:41.585Z,13.62
2016-10-29T11:51:42.265Z,13.68
2016-10-29T11:52:42.936Z,13.65
2016-10-29T11:53:43.642Z,13.62
2016-10-29T11:54:44.305Z,13.6
2016-10-29T11:55:44.992Z,13.7
2016-10-29T11:56:45.664Z,13.72
2016-10-29T11:57:46.336Z,13.77
2016-10-29T11:58:47.009Z,13.68
2016-10-29T11:59:47.682Z,13.72
2016-10-29T12:00:48.355Z,13.65
2016-10-29T12:01:49.023Z,13.59
2016-10-29T12:02:49.695Z,13.62
2016-10-29T12:03:50.382Z,13.67
2016-10-29T12:04:51.049Z,13.6
2016-10-29T12:05:51.712Z,13.68
2016-10-29T12:06:52.388Z,13.63
2016-10-29T12:07:53.059Z,13.7
2016-10-29T12:08:53.739Z,13.65
2016-10-29T12:09:54.411Z,13.62
2016-10-29T12:10:55.083Z,13.57
2016-10-29T12:11:55.758Z,13.54
2016-10-29T12:12:56.427Z,13.5
2016-10-29T12:13:57.100Z,13.47
2016-10-29T12:14:57.770Z,13.42
2016-10-29T12:15:58.442Z,13.38
2016-10-29T12:16:59.119Z,13.37
2016-10-29T12:17:59.789Z,13.31
2016-10-29T12:19:00.458Z,13.28
2016-10-29T12:20:01.158Z,13.31
2016-10-29T12:21:01.830Z,13.23
2016-10-29T12:22:02.520Z,13.35
2016-10-29T12:23:03.201Z,13.31
2016-10-29T12:24:03.869Z,13.37
2016-10-29T12:25:04.542Z,13.38
2016-10-29T12:26:05.220Z,13.37
2016-10-29T12:27:05.897Z,13.39
2016-10-29T12:28:06.561Z,13.42
2016-10-29T12:29:07.236Z,13.5
2016-10-29T12:30:07.917Z,13.52
2016-10-29T12:31:08.606Z,13.52
2016-10-29T12:32:09.276Z,13.54
2016-10-29T12:33:09.951Z,13.49
2016-10-29T12:34:10.621Z,13.46
2016-10-29T12:35:11.299Z,13.44
2016-10-29T12:36:11.960Z,13.46
2016-10-29T12:37:12.632Z,13.46
2016-10-29T12:38:13.308Z,13.53
2016-10-29T12:39:13.985Z,13.54
2016-10-29T12:40:14.648Z,13.53
2016-10-29T12:41:15.314Z,13.65
2016-10-29T12:42:15.993Z,13.63
2016-10-29T12:43:16.654Z,13.67
2016-10-29T12:44:17.332Z,13.59
2016-10-29T12:45:18.002Z,13.63
2016-10-29T12:46:18.680Z,13.59
2016-10-29T12:47:19.346Z,13.65
2016-10-29T12:48:20.010Z,13.65
2016-10-29T12:49:20.675Z,13.63
2016-10-29T12:50:21.357Z,13.67
2016-10-29T12:51:22.051Z,13.63
2016-10-29T12:52:22.724Z,13.63
2016-10-29T12:53:23.400Z,13.6
2016-10-29T12:54:24.066Z,13.56
2016-10-29T12:55:24.739Z,13.6
2016-10-29T12:56:25.416Z,13.6
2016-10-29T12:57:26.087Z,13.52
2016-10-29T12:58:26.777Z,13.56
2016-10-29T12:59:27.493Z,13.47
2016-10-29T13:00:28.164Z,13.38
2016-10-29T13:01:28.839Z,13.47
2016-10-29T13:02:29.517Z,13.35
2016-10-29T13:03:30.191Z,13.38
2016-10-29T13:04:30.855Z,13.39
2016-10-29T13:05:31.537Z,13.47
2016-10-29T13:06:32.208Z,13.42
2016-10-29T13:07:32.912Z,13.42
2016-10-29T13:08:33.585Z,13.44
2016-10-29T13:09:34.298Z,13.38
2016-10-29T13:10:34.971Z,13.35
2016-10-29T13:11:35.650Z,13.25